.
WxDataArchive / Data Records for 2016-04-23
2016-04-22 April 2016 2016-04-24

Data Records for Saturday, 23 April 2016

Time	Temp	Chill	HIndex	Humid	Dewpt	 Wind 	HiWind	WindDir	Rain 	Barom
-----	----	-----	------	-----	-----	------	------	-------	-----	-----
00:00	53.5	53.5	53.5	78	46.8	0	2	45	0.00	30.053 
00:05	53.3	53.3	53.3	78	46.6	0	3	45	0.00	30.053 
00:10	53.3	53.3	53.3	78	46.6	0	2	45	0.00	30.053 
00:15	53.2	53.2	53.2	79	46.9	0	3	45	0.00	30.058 
00:20	53.1	53.1	53.1	80	47.1	0	2	45	0.00	30.058 
00:25	52.9	52.9	52.9	80	46.9	0	1	45	0.00	30.058 
00:30	52.6	52.6	52.6	80	46.6	0	1	45	0.00	30.059 
00:35	52.3	52.3	52.3	81	46.6	0	0	---	0.00	30.059 
00:40	52.2	52.2	52.2	81	46.5	0	1	45	0.00	30.059 
00:45	51.9	51.9	51.9	82	46.6	0	0	---	0.00	30.061 
00:50	51.6	51.6	51.6	82	46.3	0	1	90	0.00	30.061 
00:55	51.3	51.3	51.3	83	46.3	0	3	90	0.00	30.061 
01:00	51.1	51.1	51.1	83	46.1	0	0	---	0.00	30.064 
01:05	51.0	51.0	51.0	83	46.0	0	1	90	0.00	30.064 
01:10	50.8	50.8	50.8	83	45.8	0	1	90	0.00	30.064 
01:15	50.7	50.7	50.7	83	45.7	0	0	---	0.00	30.063 
01:20	50.5	50.5	50.5	83	45.5	0	0	---	0.00	30.063 
01:25	50.2	50.2	50.2	84	45.6	0	1	90	0.00	30.063 
01:30	50.1	50.1	50.1	84	45.5	0	2	90	0.00	30.064 
01:35	49.8	49.8	49.8	83	44.8	0	1	90	0.00	30.064 
01:40	49.5	49.5	49.5	83	44.6	0	0	---	0.00	30.064 
01:45	49.4	49.4	49.4	82	44.1	0	1	90	0.00	30.065 
01:50	49.2	49.2	49.2	82	43.9	0	1	90	0.00	30.065 
01:55	49.1	49.1	49.1	82	43.8	0	1	90	0.00	30.065 
02:00	49.1	49.1	49.1	82	43.8	0	0	---	0.00	30.067 
02:05	49.1	49.1	49.1	82	43.8	0	1	90	0.00	30.067 
02:10	49.1	49.1	49.1	82	43.8	0	1	90	0.00	30.067 
02:15	49.1	49.1	49.1	82	43.8	0	2	90	0.00	30.066 
02:20	49.2	49.2	49.2	82	43.9	0	2	90	0.00	30.066 
02:25	49.2	49.2	49.2	82	43.9	0	2	90	0.00	30.066 
02:30	49.4	49.4	49.4	82	44.1	0	1	90	0.00	30.070 
02:35	49.4	49.4	49.4	82	44.1	0	2	90	0.00	30.070 
02:40	49.4	49.4	49.4	82	44.1	0	1	90	0.00	30.070 
02:45	49.4	49.4	49.4	82	44.1	0	1	90	0.00	30.072 
02:50	49.4	49.4	49.4	83	44.5	0	2	90	0.00	30.072 
02:55	49.4	49.4	49.4	83	44.5	0	2	90	0.00	30.072 
03:00	49.4	49.4	49.4	82	44.1	0	2	90	0.00	30.070 
03:05	49.4	49.4	49.4	83	44.5	0	0	---	0.00	30.070 
03:10	49.4	49.4	49.4	82	44.1	0	0	---	0.00	30.070 
03:15	49.4	49.4	49.4	82	44.1	0	2	90	0.00	30.074 
03:20	49.4	49.4	49.4	82	44.1	0	2	90	0.00	30.074 
03:25	49.4	49.4	49.4	82	44.1	0	2	90	0.00	30.074 
03:30	49.4	49.4	49.4	82	44.1	0	1	90	0.00	30.078 
03:35	49.4	49.4	49.4	81	43.8	0	2	90	0.00	30.078 
03:40	49.4	49.4	49.4	81	43.8	0	1	90	0.00	30.078 
03:45	49.2	49.2	49.2	81	43.6	0	3	90	0.00	30.079 
03:50	49.2	49.2	49.2	80	43.3	0	1	90	0.00	30.079 
03:55	49.2	49.2	49.2	80	43.3	0	2	90	0.00	30.079 
04:00	49.2	49.2	49.2	80	43.3	0	1	90	0.00	30.081 
04:05	49.2	49.2	49.2	80	43.3	0	3	90	0.00	30.081 
04:10	49.2	49.2	49.2	80	43.3	0	1	90	0.00	30.081 
04:15	49.2	49.2	49.2	81	43.6	0	3	90	0.00	30.081 
04:20	49.1	49.1	49.1	80	43.2	0	2	90	0.00	30.081 
04:25	49.1	49.1	49.1	81	43.5	0	2	90	0.00	30.081 
04:30	48.9	48.9	48.9	81	43.3	0	2	90	0.00	30.081 
04:35	48.8	48.8	48.8	80	42.9	0	1	90	0.00	30.081 
04:40	48.8	48.8	48.8	81	43.2	0	1	90	0.00	30.081 
04:45	48.6	48.6	48.6	81	43.0	0	1	90	0.00	30.081 
04:50	48.5	48.5	48.5	81	42.9	0	2	90	0.00	30.081 
04:55	48.5	48.5	48.5	81	42.9	0	1	90	0.00	30.081 
05:00	48.3	48.3	48.3	81	42.7	0	1	90	0.00	30.080 
05:05	48.3	48.3	48.3	81	42.7	0	0	---	0.00	30.080 
05:10	48.2	48.2	48.2	81	42.6	0	0	---	0.00	30.080 
05:15	48.2	48.2	48.2	81	42.6	0	1	90	0.00	30.080 
05:20	48.2	48.2	48.2	81	42.6	0	0	---	0.00	30.080 
05:25	48.2	48.2	48.2	81	42.6	0	3	90	0.00	30.080 
05:30	48.2	48.2	48.2	81	42.6	0	0	---	0.00	30.084 
05:35	48.0	48.0	48.0	81	42.5	0	0	---	0.00	30.084 
05:40	48.0	48.0	48.0	82	42.8	0	1	90	0.00	30.084 
05:45	48.0	48.0	48.0	81	42.5	0	2	90	0.00	30.087 
05:50	47.9	47.9	47.9	81	42.4	0	1	90	0.00	30.087 
05:55	47.6	47.6	47.6	80	41.7	0	1	90	0.00	30.087 
06:00	47.4	47.4	47.4	80	41.5	0	1	90	0.00	30.088 
06:05	47.1	47.1	47.1	80	41.3	0	0	---	0.00	30.088 
06:10	46.8	46.8	46.8	80	41.0	0	0	---	0.00	30.088 
06:15	46.5	46.5	46.5	81	41.0	0	2	90	0.00	30.092 
06:20	46.4	46.4	46.4	81	40.9	0	3	90	0.00	30.092 
06:25	46.2	46.2	46.2	81	40.7	0	2	90	0.00	30.092 
06:30	46.1	46.1	46.1	81	40.6	0	1	90	0.00	30.095 
06:35	45.8	45.8	45.8	81	40.3	0	2	90	0.00	30.095 
06:40	45.7	45.7	45.7	81	40.2	0	2	90	0.00	30.095 
06:45	45.5	45.5	45.5	81	40.0	0	2	90	0.00	30.098 
06:50	45.4	45.4	45.4	81	39.9	0	2	90	0.00	30.098 
06:55	45.1	45.1	45.1	81	39.6	0	2	90	0.00	30.098 
07:00	44.9	44.9	44.9	81	39.4	1	4	90	0.00	30.110 
07:05	44.6	44.6	44.6	81	39.1	0	1	90	0.00	30.110 
07:10	44.5	44.5	44.5	81	39.0	0	3	90	0.00	30.110 
07:15	44.2	44.2	44.2	81	38.7	0	3	45	0.00	30.120 
07:20	44.2	44.2	44.2	81	38.7	0	2	45	0.00	30.120 
07:25	44.1	44.1	44.1	81	38.6	1	2	45	0.00	30.120 
07:30	44.1	44.1	44.1	81	38.6	1	3	45	0.00	30.127 
07:35	44.1	44.1	44.1	81	38.6	0	3	45	0.00	30.127 
07:40	44.2	44.2	44.2	82	39.1	0	1	45	0.00	30.127 
07:45	44.2	44.2	44.2	82	39.1	0	1	45	0.00	30.136 
07:50	44.5	44.5	44.5	82	39.4	0	3	45	0.00	30.136 
07:55	44.8	44.8	44.8	81	39.3	0	3	45	0.00	30.136 
08:00	45.1	45.1	45.1	78	38.7	2	5	90	0.00	30.142 
08:05	45.2	45.2	45.2	77	38.4	1	4	68	0.00	30.142 
08:10	45.7	45.7	45.7	77	38.9	0	2	68	0.00	30.142 
08:15	46.1	46.1	46.1	77	39.3	0	2	68	0.00	30.144 
08:20	46.4	46.4	46.4	74	38.6	0	2	22	0.00	30.144 
08:25	46.5	46.5	46.5	73	38.3	1	5	22	0.00	30.144 
08:30	46.7	46.7	46.7	71	37.8	1	3	45	0.00	30.143 
08:35	46.5	46.5	46.5	69	36.9	1	4	0	0.00	30.143 
08:40	46.7	46.7	46.7	69	37.1	0	3	0	0.00	30.143 
08:45	47.1	47.1	47.1	68	37.1	1	5	45	0.00	30.144 
08:50	47.4	47.4	47.4	65	36.2	1	3	90	0.00	30.144 
08:55	47.4	47.4	47.4	65	36.2	1	6	112	0.00	30.144 
09:00	47.6	47.6	47.6	65	36.4	1	3	45	0.00	30.145 
09:05	47.6	47.6	47.6	65	36.4	2	6	112	0.00	30.145 
09:10	47.6	47.6	47.6	66	36.8	1	7	112	0.00	30.145 
09:15	47.7	47.7	47.7	65	36.5	1	3	68	0.00	30.151 
09:20	47.9	47.9	47.9	65	36.7	1	3	68	0.00	30.151 
09:25	48.0	48.0	48.0	64	36.4	1	3	90	0.00	30.151 
09:30	48.2	48.2	48.2	64	36.6	1	5	22	0.00	30.152 
09:35	48.3	48.3	48.3	64	36.7	1	4	68	0.00	30.152 
09:40	48.5	48.5	48.5	65	37.3	1	4	22	0.00	30.152 
09:45	48.8	48.8	48.8	66	38.0	1	4	112	0.00	30.153 
09:50	49.1	49.1	49.1	65	37.8	1	3	90	0.00	30.153 
09:55	49.2	49.2	49.2	65	37.9	1	3	90	0.00	30.153 
10:00	49.5	49.5	49.5	64	37.8	1	4	22	0.00	30.156 
10:05	49.5	49.5	49.5	63	37.4	2	6	112	0.00	30.156 
10:10	49.6	49.6	49.6	64	37.9	1	4	112	0.00	30.156 
10:15	50.1	50.1	50.1	62	37.6	1	4	112	0.00	30.161 
10:20	50.4	50.4	50.4	61	37.5	2	5	112	0.00	30.161 
10:25	50.2	50.2	50.2	61	37.3	2	4	0	0.00	30.161 
10:30	50.2	50.2	50.2	61	37.3	2	5	0	0.00	30.165 
10:35	50.4	50.4	50.4	61	37.5	0	3	90	0.00	30.165 
10:40	50.8	50.8	50.8	61	37.8	1	4	90	0.00	30.165 
10:45	51.1	51.1	51.1	59	37.3	2	7	112	0.00	30.172 
10:50	51.1	51.1	51.1	59	37.3	2	6	112	0.00	30.172 
10:55	51.1	51.1	51.1	60	37.7	3	7	112	0.00	30.172 
11:00	51.4	51.4	51.4	60	38.0	3	7	112	0.00	30.170 
11:05	51.7	51.7	51.7	60	38.3	2	6	112	0.00	30.170 
11:10	52.2	52.2	52.2	61	39.2	1	7	112	0.00	30.170 
11:15	52.5	52.5	52.5	59	38.6	1	5	112	0.00	30.173 
11:20	52.6	52.6	52.6	58	38.2	1	4	0	0.00	30.173 
11:25	52.8	52.8	52.8	60	39.3	2	5	0	0.00	30.173 
11:30	52.9	52.9	52.9	58	38.5	1	4	112	0.00	30.170 
11:35	52.8	52.8	52.8	58	38.4	1	3	45	0.00	30.170 
11:40	53.3	53.3	53.3	59	39.3	1	4	90	0.00	30.170 
11:45	53.6	53.6	53.6	57	38.7	1	4	112	0.00	30.162 
11:50	53.8	53.8	53.8	57	38.9	1	4	22	0.00	30.162 
11:55	53.8	53.8	53.8	58	39.4	1	4	22	0.00	30.162 
12:00	54.2	54.2	54.2	57	39.3	1	3	112	0.00	30.160 
12:05	54.7	54.7	54.7	56	39.3	1	5	90	0.00	30.160 
12:10	55.0	55.0	55.0	55	39.1	1	4	22	0.00	30.160 
12:15	54.8	54.8	54.8	54	38.5	1	5	22	0.00	30.162 
12:20	55.0	55.0	55.0	53	38.2	1	4	90	0.00	30.162 
12:25	55.3	55.3	55.3	52	38.0	1	6	45	0.00	30.162 
12:30	55.0	55.0	55.0	53	38.2	4	7	112	0.00	30.159 
12:35	54.8	54.8	54.8	55	38.9	3	6	90	0.00	30.159 
12:40	55.0	55.0	55.0	54	38.7	2	6	112	0.00	30.159 
12:45	55.1	55.1	55.1	53	38.3	3	6	112	0.00	30.158 
12:50	55.3	55.3	55.3	55	39.4	2	7	112	0.00	30.158 
12:55	55.4	55.4	55.4	52	38.1	3	7	112	0.00	30.158 
13:00	55.7	55.7	55.7	54	39.3	2	5	112	0.00	30.154 
13:05	55.9	55.9	55.9	49	37.0	2	5	112	0.00	30.154 
13:10	56.2	56.2	56.2	52	38.8	1	4	45	0.00	30.154 
13:15	56.6	56.6	56.6	51	38.7	2	5	90	0.00	30.151 
13:20	56.9	56.9	56.9	49	37.9	4	7	112	0.00	30.151 
13:25	56.9	56.9	56.9	47	36.9	1	6	112	0.00	30.151 
13:30	57.2	57.2	57.2	50	38.7	1	5	112	0.00	30.145 
13:35	57.3	57.3	57.3	49	38.3	2	7	112	0.00	30.145 
13:40	57.2	57.2	57.2	49	38.2	2	6	112	0.00	30.145 
13:45	57.3	57.3	57.3	51	39.3	2	5	112	0.00	30.142 
13:50	57.3	57.3	57.3	46	36.7	1	5	0	0.00	30.142 
13:55	57.3	57.3	57.3	45	36.1	2	9	90	0.00	30.142 
14:00	57.6	57.6	57.6	46	37.0	1	6	112	0.00	30.138 
14:05	58.0	58.0	58.0	45	36.8	2	5	112	0.00	30.138 
14:10	57.8	57.8	57.8	43	35.5	3	7	112	0.00	30.138 
14:15	57.6	57.6	57.6	48	38.1	4	10	112	0.00	30.131 
14:20	57.6	57.6	57.6	46	37.0	2	6	112	0.00	30.131 
14:25	57.8	57.8	57.8	47	37.7	0	2	68	0.00	30.131 
14:30	58.1	58.1	58.1	45	36.9	1	4	22	0.00	30.126 
14:35	58.1	58.1	58.1	43	35.7	2	5	90	0.00	30.126 
14:40	58.6	58.6	58.6	47	38.4	0	3	112	0.00	30.126 
14:45	58.9	58.9	58.9	45	37.6	2	7	90	0.00	30.116 
14:50	58.9	58.9	58.9	40	34.6	2	5	90	0.00	30.116 
14:55	59.0	59.0	59.0	44	37.1	0	4	90	0.00	30.116 
15:00	58.9	58.9	58.9	42	35.9	2	7	68	0.00	30.123 
15:05	58.6	58.6	58.6	44	36.8	1	5	90	0.00	30.123 
15:10	59.0	59.0	59.0	44	37.1	1	4	112	0.00	30.123 
15:15	59.2	59.2	59.2	44	37.3	2	7	112	0.00	30.120 
15:20	59.2	59.2	59.2	43	36.7	1	4	0	0.00	30.120 
15:25	59.3	59.3	59.3	46	38.5	2	6	112	0.00	30.120 
15:30	59.6	59.6	59.6	42	36.5	0	2	338	0.00	30.123 
15:35	59.6	59.6	59.6	41	35.9	1	5	338	0.00	30.123 
15:40	59.5	59.5	59.5	41	35.8	2	6	90	0.00	30.123 
15:45	59.5	59.5	59.5	42	36.4	2	5	112	0.00	30.116 
15:50	59.5	59.5	59.5	42	36.4	2	5	135	0.00	30.116 
15:55	59.6	59.6	59.6	42	36.5	1	3	112	0.00	30.116 
16:00	59.8	59.8	59.8	40	35.4	2	5	112	0.00	30.111 
16:05	59.9	59.9	59.9	43	37.3	1	3	90	0.00	30.111 
16:10	59.9	59.9	59.9	41	36.1	2	4	90	0.00	30.111 
16:15	59.9	59.9	59.9	41	36.1	1	4	90	0.00	30.107 
16:20	60.1	60.1	60.1	40	35.7	1	3	68	0.00	30.107 
16:25	60.1	60.1	60.1	41	36.3	0	1	68	0.00	30.107 
16:30	60.4	60.4	60.4	43	37.8	2	5	90	0.00	30.098 
16:35	60.1	60.1	60.1	39	35.1	1	5	112	0.00	30.098 
16:40	60.1	60.1	60.1	42	36.9	2	6	112	0.00	30.098 
16:45	60.4	60.4	60.4	44	38.4	1	5	112	0.00	30.097 
16:50	60.4	60.4	60.4	39	35.3	1	4	112	0.00	30.097 
16:55	60.4	60.4	60.4	44	38.4	1	5	112	0.00	30.097 
17:00	60.4	60.4	60.4	43	37.8	1	5	112	0.00	30.092 
17:05	60.4	60.4	60.4	40	36.0	1	5	45	0.00	30.092 
17:10	60.5	60.5	60.5	38	34.8	1	3	45	0.00	30.092 
17:15	60.7	60.7	60.7	38	34.9	0	1	90	0.00	30.092 
17:20	60.7	60.7	60.7	36	33.6	0	1	90	0.00	30.092 
17:25	60.7	60.7	60.7	38	34.9	1	6	90	0.00	30.092 
17:30	60.7	60.7	60.7	39	35.6	1	4	112	0.00	30.087 
17:35	60.5	60.5	60.5	39	35.4	2	4	112	0.00	30.087 
17:40	60.5	60.5	60.5	39	35.4	1	4	45	0.00	30.087 
17:45	60.5	60.5	60.5	38	34.8	1	3	45	0.00	30.089 
17:50	60.4	60.4	60.4	39	35.3	0	2	68	0.00	30.089 
17:55	60.5	60.5	60.5	39	35.4	1	3	68	0.00	30.089 
18:00	60.4	60.4	60.4	38	34.7	1	4	90	0.00	30.087 
18:05	60.2	60.2	60.2	41	36.4	2	5	90	0.00	30.087 
18:10	60.2	60.2	60.2	39	35.2	1	3	90	0.00	30.087 
18:15	60.2	60.2	60.2	40	35.8	2	5	90	0.00	30.083 
18:20	60.1	60.1	60.1	39	35.1	1	3	90	0.00	30.083 
18:25	59.8	59.8	59.8	40	35.4	1	5	90	0.00	30.083 
18:30	59.6	59.6	59.6	40	35.3	2	4	68	0.00	30.081 
18:35	59.5	59.5	59.5	41	35.8	1	3	112	0.00	30.081 
18:40	59.3	59.3	59.3	42	36.2	1	3	112	0.00	30.081 
18:45	59.3	59.3	59.3	41	35.6	1	3	112	0.00	30.070 
18:50	59.3	59.3	59.3	40	35.0	1	4	90	0.00	30.070 
18:55	59.2	59.2	59.2	41	35.5	1	7	112	0.00	30.070 
19:00	59.0	59.0	59.0	42	35.9	1	3	90	0.00	30.069 
19:05	58.9	58.9	58.9	41	35.2	1	4	90	0.00	30.069 
19:10	58.9	58.9	58.9	41	35.2	1	4	90	0.00	30.069 
19:15	58.7	58.7	58.7	42	35.7	1	3	112	0.00	30.073 
19:20	58.6	58.6	58.6	42	35.6	1	3	90	0.00	30.073 
19:25	58.3	58.3	58.3	44	36.5	0	2	90	0.00	30.073 
19:30	58.1	58.1	58.1	44	36.3	0	1	90	0.00	30.070 
19:35	57.8	57.8	57.8	44	36.0	0	2	135	0.00	30.070 
19:40	57.8	57.8	57.8	45	36.6	1	3	135	0.00	30.070 
19:45	57.8	57.8	57.8	45	36.6	0	2	135	0.00	30.068 
19:50	57.6	57.6	57.6	44	35.8	1	4	135	0.00	30.068 
19:55	57.5	57.5	57.5	44	35.8	0	2	90	0.00	30.068 
20:00	57.3	57.3	57.3	44	35.6	0	3	90	0.00	30.068 
20:05	57.2	57.2	57.2	43	34.9	0	2	90	0.00	30.068 
20:10	57.0	57.0	57.0	44	35.3	0	1	90	0.00	30.068 
20:15	56.7	56.7	56.7	45	35.6	0	1	90	0.00	30.067 
20:20	56.5	56.5	56.5	44	34.9	0	2	90	0.00	30.067 
20:25	56.3	56.3	56.3	45	35.2	0	0	---	0.00	30.067 
20:30	56.0	56.0	56.0	46	35.5	0	0	---	0.00	30.072 
20:35	55.7	55.7	55.7	47	35.8	0	0	---	0.00	30.072 
20:40	55.3	55.3	55.3	48	35.9	0	0	---	0.00	30.072 
20:45	55.0	55.0	55.0	49	36.2	0	0	---	0.00	30.069 
20:50	54.5	54.5	54.5	51	36.7	0	1	90	0.00	30.069 
20:55	54.2	54.2	54.2	50	36.0	0	1	90	0.00	30.069 
21:00	54.1	54.1	54.1	52	36.9	0	1	90	0.00	30.075 
21:05	53.9	53.9	53.9	53	37.2	0	2	90	0.00	30.075 
21:10	53.8	53.8	53.8	54	37.5	0	1	112	0.00	30.075 
21:15	53.5	53.5	53.5	54	37.3	0	2	112	0.00	30.069 
21:20	53.2	53.2	53.2	54	37.0	0	2	112	0.00	30.069 
21:25	53.1	53.1	53.1	55	37.4	0	2	112	0.00	30.069 
21:30	52.8	52.8	52.8	55	37.1	0	1	112	0.00	30.081 
21:35	52.6	52.6	52.6	54	36.4	0	2	112	0.00	30.081 
21:40	52.3	52.3	52.3	54	36.2	0	1	112	0.00	30.081 
21:45	52.2	52.2	52.2	54	36.1	0	2	112	0.00	30.083 
21:50	51.9	51.9	51.9	55	36.2	0	0	---	0.00	30.083 
21:55	51.6	51.6	51.6	55	36.0	0	1	112	0.00	30.083 
22:00	51.3	51.3	51.3	55	35.7	0	2	112	0.00	30.085 
22:05	51.1	51.1	51.1	53	34.6	1	3	112	0.00	30.085 
22:10	51.1	51.1	51.1	53	34.6	0	2	112	0.00	30.085 
22:15	51.0	51.0	51.0	54	34.9	0	1	112	0.00	30.081 
22:20	50.8	50.8	50.8	54	34.8	0	0	---	0.00	30.081 
22:25	50.5	50.5	50.5	54	34.5	0	1	112	0.00	30.081 
22:30	50.4	50.4	50.4	54	34.4	0	0	---	0.00	30.085 
22:35	50.1	50.1	50.1	54	34.1	0	1	112	0.00	30.085 
22:40	49.8	49.8	49.8	54	33.8	0	1	112	0.00	30.085 
22:45	49.6	49.6	49.6	54	33.6	0	1	112	0.00	30.083 
22:50	49.5	49.5	49.5	54	33.6	0	0	---	0.00	30.083 
22:55	49.4	49.4	49.4	54	33.5	0	0	---	0.00	30.083 
23:00	49.2	49.2	49.2	55	33.7	0	0	---	0.00	30.084 
23:05	48.9	48.9	48.9	55	33.5	0	0	---	0.00	30.084 
23:10	48.6	48.6	48.6	56	33.6	0	0	---	0.00	30.084 
23:15	48.2	48.2	48.2	56	33.2	0	0	---	0.00	30.082 
23:20	47.7	47.7	47.7	57	33.2	0	0	---	0.00	30.082 
23:25	47.4	47.4	47.4	58	33.4	0	0	---	0.00	30.082 
23:30	47.0	47.0	47.0	58	33.0	0	0	---	0.00	30.085 
23:35	46.5	46.5	46.5	60	33.4	0	0	---	0.00	30.085 
23:40	46.2	46.2	46.2	61	33.5	0	0	---	0.00	30.085 
23:45	46.0	46.0	46.0	62	33.7	0	0	---	0.00	30.085 
23:50	45.7	45.7	45.7	62	33.4	0	0	---	0.00	30.085 
23:55	45.4	45.4	45.4	63	33.6	0	0	---	0.00	30.085 

CoCoRaHS
IN-AL-39
A2 Web Hosting
Creative Commons License
GoDaddy
search engine by freefind advanced

loaded 2018-11-16 00:11:51 • last modified 2010-11-18 10:43:29
Privacy PolicyDisclaimer
• wx.awcolley.com is powered by PmWiki v.2002016 •
• all content (unless otherwise noted) © 2018 A W Colley